createdAt,value
2023-02-03T00:02:09.440Z,44.88
2023-02-03T00:04:36.419Z,46.25
2023-02-03T00:07:03.436Z,41.60
2023-02-03T00:09:30.745Z,36.50
2023-02-03T00:11:57.750Z,40.95
2023-02-03T00:14:24.804Z,38.42
2023-02-03T00:16:51.860Z,44.47
2023-02-03T00:19:18.809Z,41.25
2023-02-03T00:21:45.761Z,43.28
2023-02-03T00:24:12.818Z,40.90
2023-02-03T00:26:43.853Z,38.85
2023-02-03T00:29:11.252Z,44.65
2023-02-03T00:31:38.547Z,37.83
2023-02-03T00:34:06.535Z,37.30
2023-02-03T00:36:33.712Z,32.22
2023-02-03T00:39:01.506Z,31.25
2023-02-03T00:41:31.787Z,36.28
2023-02-03T00:43:58.973Z,35.75
2023-02-03T00:46:26.149Z,38.78
2023-02-03T00:48:53.256Z,33.40
2023-02-03T00:51:21.518Z,37.13
2023-02-03T00:53:49.389Z,32.10
2023-02-03T00:56:16.403Z,36.67
2023-02-03T00:58:44.955Z,35.00
2023-02-03T01:01:12.039Z,37.33
2023-02-03T01:03:39.622Z,33.80
2023-02-03T01:06:19.356Z,35.88
2023-02-03T01:08:47.605Z,40.83
2023-02-03T01:11:21.136Z,35.17
2023-02-03T01:13:49.139Z,36.22
2023-02-03T01:16:20.227Z,38.83
2023-02-03T01:18:47.770Z,35.70
2023-02-03T01:21:17.907Z,34.83
2023-02-03T01:23:45.530Z,37.40
2023-02-03T01:26:15.561Z,36.70
2023-02-03T01:28:43.152Z,36.95
2023-02-03T01:31:15.644Z,36.80
2023-02-03T01:33:46.365Z,40.58
2023-02-03T01:36:14.493Z,34.00
2023-02-03T01:38:42.191Z,37.95
2023-02-03T01:41:13.063Z,36.92
2023-02-03T01:43:43.571Z,35.65
2023-02-03T01:46:13.244Z,42.83
2023-02-03T01:48:40.320Z,38.20
2023-02-03T01:51:07.615Z,36.33
2023-02-03T01:53:34.764Z,32.45
2023-02-03T01:56:05.010Z,37.30
2023-02-03T01:58:36.080Z,39.67
2023-02-03T02:01:03.145Z,34.60
2023-02-03T02:03:38.576Z,32.28
2023-02-03T02:06:08.437Z,31.23
2023-02-03T02:08:38.842Z,35.87
2023-02-03T02:11:07.265Z,36.53
2023-02-03T02:13:35.726Z,34.28
2023-02-03T02:16:08.760Z,42.22
2023-02-03T02:19:10.755Z,37.55
2023-02-03T02:21:56.763Z,35.50
2023-02-03T02:24:32.624Z,36.85
2023-02-03T02:27:09.519Z,34.80
2023-02-03T02:29:55.423Z,35.03
2023-02-03T02:32:37.703Z,37.67
2023-02-03T02:35:12.769Z,34.10
2023-02-03T02:38:13.949Z,37.50
2023-02-03T02:40:40.841Z,40.92
2023-02-03T02:43:27.582Z,43.28
2023-02-03T02:46:09.351Z,36.53
2023-02-03T02:48:43.713Z,41.65
2023-02-03T02:51:14.597Z,39.63
2023-02-03T02:53:49.359Z,45.58
2023-02-03T02:56:18.957Z,42.15
2023-02-03T02:58:49.728Z,42.70
2023-02-03T03:01:17.387Z,37.38
2023-02-03T03:03:45.335Z,41.25
2023-02-03T03:06:19.461Z,38.05
2023-02-03T03:09:01.449Z,46.40
2023-02-03T03:11:32.057Z,45.05
2023-02-03T03:14:02.464Z,41.92
2023-02-03T03:16:36.117Z,43.33
2023-02-03T03:19:10.304Z,38.10
2023-02-03T03:21:47.929Z,39.35
2023-02-03T03:24:22.303Z,39.45
2023-02-03T03:26:55.176Z,40.78
2023-02-03T03:29:26.807Z,36.85
2023-02-03T03:31:53.933Z,45.10
2023-02-03T03:34:21.193Z,40.38
2023-02-03T03:36:56.748Z,43.42
2023-02-03T03:39:36.047Z,42.92
2023-02-03T03:42:41.561Z,39.15
2023-02-03T03:45:33.197Z,42.97
2023-02-03T03:48:06.531Z,39.17
2023-02-03T03:50:38.343Z,39.63
2023-02-03T03:53:08.250Z,40.15
2023-02-03T03:55:38.365Z,40.40
2023-02-03T03:58:10.309Z,46.53
2023-02-03T04:00:40.009Z,46.42
2023-02-03T04:03:13.961Z,45.25
2023-02-03T04:05:43.037Z,47.40
2023-02-03T04:08:10.038Z,44.83
2023-02-03T04:10:40.265Z,46.95
2023-02-03T04:13:09.347Z,44.95
2023-02-03T04:15:37.030Z,39.92
2023-02-03T04:18:04.729Z,42.83
2023-02-03T04:20:32.920Z,42.03
2023-02-03T04:22:59.955Z,47.83
2023-02-03T04:25:27.127Z,57.28
2023-02-03T04:27:55.120Z,47.08
2023-02-03T04:30:22.193Z,47.42
2023-02-03T04:32:49.583Z,42.13
2023-02-03T04:35:16.963Z,44.08
2023-02-03T04:37:44.044Z,46.58
2023-02-03T04:40:11.900Z,44.53
2023-02-03T04:42:40.473Z,51.00
2023-02-03T04:45:10.352Z,45.78
2023-02-03T04:47:37.812Z,41.78
2023-02-03T04:50:05.051Z,39.97
2023-02-03T04:52:32.172Z,44.45
2023-02-03T04:54:59.176Z,42.38
2023-02-03T04:57:26.118Z,39.95
2023-02-03T04:59:53.082Z,42.13
2023-02-03T05:02:20.074Z,46.70
2023-02-03T05:04:46.981Z,47.33
2023-02-03T05:07:13.922Z,41.42
2023-02-03T05:09:40.865Z,44.38
2023-02-03T05:12:07.913Z,50.97
2023-02-03T05:14:34.839Z,51.58
2023-02-03T05:17:01.814Z,47.17
2023-02-03T05:19:28.878Z,43.00
2023-02-03T05:21:55.835Z,53.45
2023-02-03T05:24:22.825Z,49.13
2023-02-03T05:26:49.798Z,41.53
2023-02-03T05:29:16.802Z,41.20
2023-02-03T05:31:43.780Z,39.75
2023-02-03T05:34:10.788Z,51.65
2023-02-03T05:36:37.773Z,48.20
2023-02-03T05:39:04.805Z,47.30
2023-02-03T05:41:50.364Z,47.90
2023-02-03T05:44:17.309Z,50.58
2023-02-03T05:46:44.266Z,44.03
2023-02-03T05:49:11.261Z,47.90
2023-02-03T05:51:39.616Z,48.45
2023-02-03T05:54:07.225Z,48.15
2023-02-03T05:56:34.274Z,50.70
2023-02-03T05:59:01.251Z,51.53
2023-02-03T06:01:28.280Z,44.42
2023-02-03T06:03:55.388Z,53.63
2023-02-03T06:06:22.870Z,44.80
2023-02-03T06:08:52.406Z,49.50
2023-02-03T06:11:19.353Z,55.83
2023-02-03T06:13:47.632Z,49.83
2023-02-03T06:16:14.722Z,46.97
2023-02-03T06:18:41.865Z,47.05
2023-02-03T06:21:08.818Z,44.40
2023-02-03T06:23:35.800Z,45.50
2023-02-03T06:26:02.757Z,46.10
2023-02-03T06:28:30.378Z,55.25
2023-02-03T06:30:57.380Z,49.08
2023-02-03T06:33:24.499Z,52.88
2023-02-03T06:35:51.454Z,55.75
2023-02-03T06:38:18.388Z,51.85
2023-02-03T06:40:48.054Z,52.38
2023-02-03T06:43:15.587Z,50.13
2023-02-03T06:45:46.376Z,53.38
2023-02-03T06:48:14.025Z,45.70
2023-02-03T06:50:41.434Z,50.10
2023-02-03T06:53:08.498Z,53.25
2023-02-03T06:55:35.476Z,44.75
2023-02-03T06:58:02.500Z,47.30
2023-02-03T07:00:29.795Z,55.97
2023-02-03T07:02:58.376Z,53.95
2023-02-03T07:05:28.041Z,56.67
2023-02-03T07:07:55.291Z,46.30
2023-02-03T07:10:22.272Z,52.30
2023-02-03T07:12:50.921Z,51.08
2023-02-03T07:15:18.026Z,47.30
2023-02-03T07:17:47.050Z,47.60
2023-02-03T07:20:14.161Z,49.75
2023-02-03T07:22:43.954Z,49.92
2023-02-03T07:25:10.993Z,47.33
2023-02-03T07:27:38.003Z,45.08
2023-02-03T07:30:05.399Z,49.28
2023-02-03T07:32:33.849Z,48.00
2023-02-03T07:35:01.461Z,47.05
2023-02-03T07:37:28.852Z,54.50
2023-02-03T07:39:55.839Z,49.97
2023-02-03T07:42:23.002Z,46.47
2023-02-03T07:44:51.774Z,53.40
2023-02-03T07:47:18.693Z,42.10
2023-02-03T07:49:45.668Z,43.53
2023-02-03T07:52:12.645Z,41.60
2023-02-03T07:54:39.578Z,47.58
2023-02-03T07:57:06.549Z,45.22
2023-02-03T07:59:33.812Z,38.10
2023-02-03T08:02:00.885Z,37.05
2023-02-03T08:04:28.143Z,44.58
2023-02-03T08:06:55.256Z,41.70
2023-02-03T08:09:22.182Z,45.88
2023-02-03T08:11:49.182Z,43.05
2023-02-03T08:14:16.266Z,42.20
2023-02-03T08:16:43.316Z,45.80
2023-02-03T08:19:11.122Z,40.80
2023-02-03T08:21:38.397Z,43.17
2023-02-03T08:24:05.884Z,41.67
2023-02-03T08:26:32.864Z,40.75
2023-02-03T08:28:59.927Z,44.55
2023-02-03T08:31:27.004Z,47.10
2023-02-03T08:33:54.257Z,48.50
2023-02-03T08:36:21.332Z,45.58
2023-02-03T08:38:48.362Z,42.53
2023-02-03T08:41:18.299Z,40.47
2023-02-03T08:43:45.670Z,40.20
2023-02-03T08:46:13.453Z,42.38
2023-02-03T08:48:41.009Z,38.63
2023-02-03T08:51:13.196Z,38.20
2023-02-03T08:53:40.184Z,39.63
2023-02-03T08:56:08.993Z,36.90
2023-02-03T08:58:36.772Z,33.22
2023-02-03T09:01:11.982Z,38.78
2023-02-03T09:03:39.859Z,39.42
2023-02-03T09:06:08.153Z,37.40
2023-02-03T09:08:35.165Z,37.05
2023-02-03T09:11:02.309Z,39.45
2023-02-03T09:13:29.322Z,35.60
2023-02-03T09:15:59.601Z,37.05
2023-02-03T09:18:26.660Z,36.17
2023-02-03T09:21:03.826Z,32.80
2023-02-03T09:23:31.048Z,31.73
2023-02-03T09:26:09.966Z,33.53
2023-02-03T09:28:37.820Z,37.15
2023-02-03T09:31:11.158Z,34.28
2023-02-03T09:33:39.040Z,26.63
2023-02-03T09:36:07.228Z,30.90
2023-02-03T09:38:35.051Z,27.35
2023-02-03T09:41:12.874Z,33.58
2023-02-03T09:44:00.994Z,33.67
2023-02-03T09:46:33.802Z,33.85
2023-02-03T09:49:33.094Z,38.13
2023-02-03T09:52:09.075Z,30.88
2023-02-03T09:55:13.247Z,31.67
2023-02-03T09:57:51.837Z,33.30
2023-02-03T10:00:27.838Z,30.77
2023-02-03T10:03:22.946Z,34.55
2023-02-03T10:06:01.967Z,29.95
2023-02-03T10:09:07.695Z,28.63
2023-02-03T10:12:05.307Z,29.65
2023-02-03T10:14:44.367Z,31.00
2023-02-03T10:17:30.642Z,30.67
2023-02-03T10:20:27.366Z,26.15
2023-02-03T10:22:59.981Z,27.30
2023-02-03T10:25:59.105Z,25.83
2023-02-03T10:28:39.613Z,29.42
2023-02-03T10:31:17.823Z,26.15
2023-02-03T10:33:45.051Z,30.27
2023-02-03T10:36:22.535Z,25.52
2023-02-03T10:39:07.597Z,28.02
2023-02-03T10:41:35.144Z,27.48
2023-02-03T10:44:06.863Z,26.05
2023-02-03T10:46:37.945Z,22.63
2023-02-03T10:49:05.047Z,27.42
2023-02-03T10:51:43.335Z,23.00
2023-02-03T10:54:34.501Z,30.38
2023-02-03T10:57:12.870Z,23.13
2023-02-03T10:59:45.525Z,24.00
2023-02-03T11:02:31.204Z,25.70
2023-02-03T11:05:16.616Z,22.30
2023-02-03T11:07:44.647Z,27.10
2023-02-03T11:10:29.664Z,25.10
2023-02-03T11:13:13.259Z,27.80
2023-02-03T11:16:06.139Z,25.13
2023-02-03T11:18:36.275Z,27.52
2023-02-03T11:21:15.403Z,27.63
2023-02-03T11:24:02.068Z,27.02
2023-02-03T11:26:52.022Z,26.43
2023-02-03T11:29:30.841Z,26.50
2023-02-03T11:32:01.934Z,25.05
2023-02-03T11:34:35.468Z,26.13
2023-02-03T11:37:41.506Z,26.23
2023-02-03T11:40:08.556Z,26.02
2023-02-03T11:42:38.034Z,22.98
2023-02-03T11:45:18.249Z,26.27
2023-02-03T11:47:54.102Z,25.08
2023-02-03T11:50:30.803Z,24.48
2023-02-03T11:53:14.914Z,25.73
2023-02-03T11:56:00.107Z,25.20
2023-02-03T11:58:45.724Z,20.30
2023-02-03T12:01:43.786Z,21.83
2023-02-03T12:04:47.871Z,22.83
2023-02-03T12:07:36.609Z,25.50
2023-02-03T12:10:13.543Z,24.27
2023-02-03T12:12:43.241Z,21.83
2023-02-03T12:15:22.313Z,20.95
2023-02-03T12:18:31.181Z,22.25
2023-02-03T12:21:19.640Z,23.17
2023-02-03T12:24:13.410Z,24.25
2023-02-03T12:26:52.378Z,20.15
2023-02-03T12:29:32.490Z,21.20
2023-02-03T12:32:23.694Z,24.80
2023-02-03T12:35:02.180Z,26.23
2023-02-03T12:37:56.074Z,17.10
2023-02-03T12:40:49.151Z,19.77
2023-02-03T12:43:30.877Z,19.15
2023-02-03T12:46:21.002Z,20.40
2023-02-03T12:49:04.506Z,17.67
2023-02-03T12:51:41.481Z,21.60
2023-02-03T12:54:29.832Z,21.10
2023-02-03T12:57:03.510Z,20.70
2023-02-03T12:59:32.583Z,16.08
2023-02-03T13:02:13.929Z,17.60
2023-02-03T13:04:57.023Z,16.65
2023-02-03T13:07:47.777Z,17.17
2023-02-03T13:10:33.268Z,21.75
2023-02-03T13:13:01.237Z,16.90
2023-02-03T13:15:37.507Z,18.60
2023-02-03T13:18:33.068Z,16.08
2023-02-03T13:21:00.314Z,18.33
2023-02-03T13:23:27.885Z,18.00
2023-02-03T13:26:11.140Z,18.80
2023-02-03T13:29:04.364Z,17.05
2023-02-03T13:31:37.288Z,16.45
2023-02-03T13:34:16.139Z,18.15
2023-02-03T13:37:14.050Z,17.08
2023-02-03T13:39:47.611Z,16.27
2023-02-03T13:42:29.864Z,17.42
2023-02-03T13:45:31.076Z,14.55
2023-02-03T13:48:22.292Z,16.00
2023-02-03T13:51:14.892Z,17.75
2023-02-03T13:53:45.177Z,18.83
2023-02-03T13:56:20.480Z,18.20
2023-02-03T13:59:07.372Z,17.40
2023-02-03T14:01:38.560Z,17.00
2023-02-03T14:04:09.153Z,15.77
2023-02-03T14:06:36.273Z,18.10
2023-02-03T14:09:24.247Z,18.27
2023-02-03T14:11:52.789Z,22.00
2023-02-03T14:14:20.868Z,18.77
2023-02-03T14:16:54.792Z,16.55
2023-02-03T14:19:21.906Z,18.30
2023-02-03T14:22:02.961Z,17.73
2023-02-03T14:24:39.202Z,17.23
2023-02-03T14:27:21.431Z,15.15
2023-02-03T14:30:07.243Z,19.10
2023-02-03T14:33:01.256Z,17.08
2023-02-03T14:35:30.986Z,22.83
2023-02-03T14:38:02.867Z,20.27
2023-02-03T14:40:50.110Z,23.75
2023-02-03T14:43:26.214Z,18.92
2023-02-03T14:46:36.713Z,22.40
2023-02-03T14:49:12.308Z,19.38
2023-02-03T14:51:58.161Z,19.95
2023-02-03T14:54:49.469Z,20.60
2023-02-03T14:57:45.102Z,20.88
2023-02-03T15:00:22.536Z,22.67
2023-02-03T15:03:10.885Z,22.55
2023-02-03T15:05:45.083Z,20.42
2023-02-03T15:08:36.422Z,20.80
2023-02-03T15:11:44.002Z,19.98
2023-02-03T15:14:22.415Z,19.42
2023-02-03T15:17:20.489Z,24.02
2023-02-03T15:19:47.515Z,20.75
2023-02-03T15:22:29.312Z,21.42
2023-02-03T15:24:59.226Z,18.73
2023-02-03T15:27:31.106Z,23.33
2023-02-03T15:30:02.172Z,19.30
2023-02-03T15:32:39.861Z,23.13
2023-02-03T15:35:12.768Z,23.17
2023-02-03T15:37:54.080Z,18.48
2023-02-03T15:40:26.186Z,21.60
2023-02-03T15:42:59.252Z,26.40
2023-02-03T15:45:31.216Z,21.58
2023-02-03T15:48:06.255Z,26.35
2023-02-03T15:50:41.845Z,21.80
2023-02-03T15:53:27.654Z,21.70
2023-02-03T15:55:59.332Z,24.02
2023-02-03T15:58:33.220Z,22.13
2023-02-03T16:01:05.869Z,24.38
2023-02-03T16:03:40.490Z,21.27
2023-02-03T16:06:38.095Z,19.77
2023-02-03T16:09:29.171Z,19.65
2023-02-03T16:12:22.524Z,22.48
2023-02-03T16:14:53.442Z,21.55
2023-02-03T16:17:26.951Z,24.48
2023-02-03T16:20:12.389Z,21.00
2023-02-03T16:22:42.151Z,22.25
2023-02-03T16:25:18.632Z,20.58
2023-02-03T16:27:46.642Z,24.05
2023-02-03T16:30:32.030Z,23.10
2023-02-03T16:33:35.615Z,22.35
2023-02-03T16:36:29.305Z,21.88
2023-02-03T16:39:14.748Z,23.02
2023-02-03T16:42:00.308Z,24.25
2023-02-03T16:44:55.582Z,22.67
2023-02-03T16:47:46.217Z,22.80
2023-02-03T16:50:43.256Z,25.25
2023-02-03T16:53:15.799Z,24.85
2023-02-03T16:55:46.168Z,23.00
2023-02-03T16:58:13.225Z,22.20
2023-02-03T17:00:42.638Z,22.00
2023-02-03T17:03:17.579Z,21.52
2023-02-03T17:05:47.874Z,21.88
2023-02-03T17:08:17.523Z,20.58
2023-02-03T17:10:45.501Z,22.48
2023-02-03T17:13:12.657Z,22.75
2023-02-03T17:15:44.891Z,19.90
2023-02-03T17:18:13.050Z,19.23
2023-02-03T17:20:41.219Z,17.50
2023-02-03T17:23:08.854Z,18.60
2023-02-03T17:25:38.348Z,19.13
2023-02-03T17:28:11.134Z,20.58
2023-02-03T17:30:38.262Z,18.23
2023-02-03T17:33:13.272Z,20.13
2023-02-03T17:35:45.554Z,18.83
2023-02-03T17:38:14.620Z,17.98
2023-02-03T17:54:48.071Z,15.15
2023-02-03T17:57:15.418Z,17.48
2023-02-03T17:59:42.376Z,18.88
2023-02-03T18:02:10.364Z,18.02
2023-02-03T18:04:37.350Z,18.38
2023-02-03T18:07:04.388Z,12.07
2023-02-03T18:09:39.551Z,10.70
2023-02-03T18:12:07.700Z,9.20
2023-02-03T18:14:37.990Z,7.32
2023-02-03T18:17:05.030Z,6.13
2023-02-03T18:19:33.406Z,6.93
2023-02-03T18:22:01.295Z,7.53
2023-02-03T18:24:30.014Z,5.28
2023-02-03T18:27:00.473Z,6.88
2023-02-03T18:29:28.611Z,5.65
2023-02-03T18:31:58.406Z,6.47
2023-02-03T18:34:26.482Z,6.60
2023-02-03T18:36:53.477Z,7.35
2023-02-03T18:39:20.637Z,6.78
2023-02-03T18:41:47.701Z,7.15
2023-02-03T18:44:14.627Z,6.32
2023-02-03T18:46:41.636Z,6.35
2023-02-03T18:49:09.557Z,7.55
2023-02-03T18:51:36.624Z,6.55
2023-02-03T18:54:04.309Z,6.88
2023-02-03T18:56:35.392Z,7.35
2023-02-03T18:59:10.817Z,6.95
2023-02-03T19:01:39.176Z,8.50
2023-02-03T19:04:06.650Z,8.52
2023-02-03T19:06:34.982Z,6.65
2023-02-03T19:09:03.859Z,8.82
2023-02-03T19:11:30.788Z,7.60
2023-02-03T19:13:57.841Z,7.45
2023-02-03T19:16:24.811Z,7.00
2023-02-03T19:18:51.899Z,8.05
2023-02-03T19:21:18.853Z,7.45
2023-02-03T19:23:45.813Z,9.45
2023-02-03T19:26:13.030Z,9.35
2023-02-03T19:28:40.972Z,7.88
2023-02-03T19:31:11.045Z,8.13
2023-02-03T19:33:38.124Z,8.05
2023-02-03T19:36:06.082Z,8.70
2023-02-03T19:38:33.397Z,8.13
2023-02-03T19:41:03.858Z,9.43
2023-02-03T19:43:31.310Z,9.05
2023-02-03T19:45:59.043Z,7.28
2023-02-03T19:48:26.226Z,8.52
2023-02-03T19:50:53.219Z,8.48
2023-02-03T19:53:21.689Z,7.22
2023-02-03T19:55:48.754Z,8.35
2023-02-03T19:58:15.819Z,8.52
2023-02-03T20:00:43.565Z,8.82
2023-02-03T20:03:11.227Z,11.25
2023-02-03T20:05:38.663Z,11.30
2023-02-03T20:08:06.095Z,9.55
2023-02-03T20:10:33.701Z,9.00
2023-02-03T20:13:01.202Z,9.10
2023-02-03T20:15:28.476Z,10.27
2023-02-03T20:17:56.001Z,11.48
2023-02-03T20:20:23.253Z,10.02
2023-02-03T20:22:50.556Z,9.40
2023-02-03T20:25:18.464Z,9.48
2023-02-03T20:27:45.946Z,10.88
2023-02-03T20:30:13.730Z,11.10
2023-02-03T20:32:40.775Z,11.07
2023-02-03T20:35:08.824Z,11.00
2023-02-03T20:37:36.443Z,16.67
2023-02-03T20:40:12.832Z,11.73
2023-02-03T20:42:40.192Z,8.75
2023-02-03T20:45:13.354Z,9.40
2023-02-03T20:47:40.554Z,9.70
2023-02-03T20:50:18.438Z,9.40
2023-02-03T20:52:50.018Z,8.57
2023-02-03T20:55:22.809Z,8.90
2023-02-03T20:57:51.746Z,8.90
2023-02-03T21:00:25.841Z,8.00
2023-02-03T21:03:12.166Z,7.85
2023-02-03T21:05:43.293Z,7.20
2023-02-03T21:08:20.452Z,7.80
2023-02-03T21:13:18.363Z,6.75
2023-02-03T21:15:51.835Z,7.20
2023-02-03T21:18:40.569Z,6.28
2023-02-03T21:21:25.148Z,8.05
2023-02-03T21:23:54.963Z,6.93
2023-02-03T21:26:23.770Z,7.47
2023-02-03T21:28:53.602Z,8.65
2023-02-03T21:31:25.136Z,7.38
2023-02-03T21:33:54.273Z,7.70
2023-02-03T21:36:24.273Z,7.22
2023-02-03T21:38:57.429Z,8.73
2023-02-03T21:42:00.606Z,6.80
2023-02-03T21:44:38.385Z,5.93
2023-02-03T21:47:31.175Z,6.30
2023-02-03T21:50:52.217Z,6.57
2023-02-03T21:54:41.796Z,7.13
2023-02-03T21:57:15.009Z,6.35
2023-02-03T21:59:46.648Z,7.13
2023-02-03T22:02:56.798Z,7.03
2023-02-03T22:05:23.835Z,6.85
2023-02-03T22:07:50.827Z,7.93
2023-02-03T22:10:17.848Z,6.65
2023-02-03T22:12:44.800Z,10.65
2023-02-03T22:15:12.425Z,7.80
2023-02-03T22:17:39.398Z,6.38
2023-02-03T22:20:06.848Z,8.10
2023-02-03T22:22:34.031Z,6.97
2023-02-03T22:25:01.287Z,7.78
2023-02-03T22:27:28.363Z,7.40
2023-02-03T22:29:56.640Z,6.57
2023-02-03T22:32:23.761Z,6.65
2023-02-03T22:34:50.873Z,9.70
2023-02-03T22:37:17.780Z,9.35
2023-02-03T22:39:44.985Z,7.63
2023-02-03T22:42:19.037Z,7.53
2023-02-03T22:44:46.509Z,7.32
2023-02-03T22:47:14.152Z,6.97
2023-02-03T22:49:41.086Z,7.05
2023-02-03T22:52:08.054Z,7.05
2023-02-03T22:54:37.447Z,7.00
2023-02-03T22:57:05.219Z,7.13
2023-02-03T22:59:32.163Z,6.13
2023-02-03T23:01:59.086Z,8.98
2023-02-03T23:04:26.150Z,7.57
2023-02-03T23:06:53.186Z,6.88
2023-02-03T23:09:20.133Z,6.70
2023-02-03T23:11:47.203Z,6.95
2023-02-03T23:14:16.794Z,6.45
2023-02-03T23:16:43.981Z,6.45
2023-02-03T23:19:10.998Z,7.20
2023-02-03T23:21:37.898Z,6.80
2023-02-03T23:24:05.198Z,7.07
2023-02-03T23:26:32.340Z,7.05
2023-02-03T23:28:59.314Z,6.45
2023-02-03T23:31:26.368Z,7.25
2023-02-03T23:34:12.028Z,6.90
2023-02-03T23:36:38.952Z,8.45
2023-02-03T23:39:06.716Z,8.40
2023-02-03T23:41:33.711Z,7.78
2023-02-03T23:44:03.437Z,8.32
2023-02-03T23:46:30.543Z,7.28
2023-02-03T23:48:57.530Z,8.18
2023-02-03T23:51:24.577Z,8.23
2023-02-03T23:53:51.516Z,7.95
2023-02-03T23:56:18.427Z,8.43
2023-02-03T23:58:45.341Z,9.40
